sensor_id;sensor_type;location;lat;lon;timestamp;temperature;humidity
4002;DHT22;2015;48.670;9.060;2022-10-16T04:01:14;13.30;99.90
4002;DHT22;2015;48.670;9.060;2022-10-16T04:03:47;13.30;99.90
4002;DHT22;2015;48.670;9.060;2022-10-16T04:06:19;13.30;99.90
4002;DHT22;2015;48.670;9.060;2022-10-16T04:08:51;13.30;99.90
4002;DHT22;2015;48.670;9.060;2022-10-16T04:11:23;13.30;99.90
4002;DHT22;2015;48.670;9.060;2022-10-16T04:13:55;13.30;99.90
4002;DHT22;2015;48.670;9.060;2022-10-16T04:16:26;13.30;99.90
4002;DHT22;2015;48.670;9.060;2022-10-16T04:18:58;13.30;99.90
4002;DHT22;2015;48.670;9.060;2022-10-16T04:21:30;13.30;99.90
4002;DHT22;2015;48.670;9.060;2022-10-16T04:24:02;13.30;99.90
4002;DHT22;2015;48.670;9.060;2022-10-16T04:26:34;13.30;99.90
4002;DHT22;2015;48.670;9.060;2022-10-16T04:29:06;13.30;99.90
4002;DHT22;2015;48.670;9.060;2022-10-16T04:31:38;13.30;99.90
4002;DHT22;2015;48.670;9.060;2022-10-16T04:34:10;13.30;99.90
4002;DHT22;2015;48.670;9.060;2022-10-16T04:36:42;13.30;99.90
4002;DHT22;2015;48.670;9.060;2022-10-16T04:39:13;13.30;99.90
4002;DHT22;2015;48.670;9.060;2022-10-16T04:41:45;13.30;99.90
4002;DHT22;2015;48.670;9.060;2022-10-16T04:44:17;13.30;99.90
4002;DHT22;2015;48.670;9.060;2022-10-16T04:46:52;13.30;99.90
4002;DHT22;2015;48.670;9.060;2022-10-16T04:49:23;13.30;99.90
4002;DHT22;2015;48.670;9.060;2022-10-16T04:51:55;13.30;99.90
4002;DHT22;2015;48.670;9.060;2022-10-16T04:54:27;13.30;99.90
4002;DHT22;2015;48.670;9.060;2022-10-16T04:56:59;13.30;99.90
4002;DHT22;2015;48.670;9.060;2022-10-16T04:59:31;13.30;99.90
4002;DHT22;2015;48.670;9.060;2022-10-16T05:02:02;13.40;99.90
4002;DHT22;2015;48.670;9.060;2022-10-16T05:04:34;13.40;99.90
4002;DHT22;2015;48.670;9.060;2022-10-16T05:07:06;13.40;99.90
4002;DHT22;2015;48.670;9.060;2022-10-16T05:09:38;13.30;99.90
4002;DHT22;2015;48.670;9.060;2022-10-16T05:12:09;13.30;99.90
4002;DHT22;2015;48.670;9.060;2022-10-16T05:14:41;13.30;99.90
4002;DHT22;2015;48.670;9.060;2022-10-16T05:17:13;13.30;99.90
4002;DHT22;2015;48.670;9.060;2022-10-16T05:19:45;13.30;99.90
4002;DHT22;2015;48.670;9.060;2022-10-16T05:22:17;13.30;99.90
4002;DHT22;2015;48.670;9.060;2022-10-16T05:24:49;13.20;99.90
4002;DHT22;2015;48.670;9.060;2022-10-16T05:27:20;13.20;99.90
4002;DHT22;2015;48.670;9.060;2022-10-16T05:29:52;13.10;99.90
4002;DHT22;2015;48.670;9.060;2022-10-16T05:32:24;13.10;99.90
4002;DHT22;2015;48.670;9.060;2022-10-16T05:34:56;13.00;99.90
4002;DHT22;2015;48.670;9.060;2022-10-16T05:37:27;13.00;99.90
4002;DHT22;2015;48.670;9.060;2022-10-16T05:39:59;13.00;99.90
4002;DHT22;2015;48.670;9.060;2022-10-16T05:42:31;13.00;99.90
4002;DHT22;2015;48.670;9.060;2022-10-16T05:45:05;13.00;99.90
4002;DHT22;2015;48.670;9.060;2022-10-16T05:47:36;13.00;99.90
4002;DHT22;2015;48.670;9.060;2022-10-16T05:50:08;12.90;99.90
4002;DHT22;2015;48.670;9.060;2022-10-16T05:52:40;12.90;99.90
4002;DHT22;2015;48.670;9.060;2022-10-16T05:55:12;12.90;99.90
4002;DHT22;2015;48.670;9.060;2022-10-16T05:57:44;13.00;99.90
4002;DHT22;2015;48.670;9.060;2022-10-16T06:00:15;13.00;99.90
4002;DHT22;2015;48.670;9.060;2022-10-16T06:02:47;13.10;99.90
4002;DHT22;2015;48.670;9.060;2022-10-16T06:05:19;13.10;99.90
4002;DHT22;2015;48.670;9.060;2022-10-16T06:07:51;13.10;99.90
4002;DHT22;2015;48.670;9.060;2022-10-16T06:10:22;13.20;99.90
4002;DHT22;2015;48.670;9.060;2022-10-16T06:12:54;13.20;99.90
4002;DHT22;2015;48.670;9.060;2022-10-16T06:15:26;13.20;99.90
4002;DHT22;2015;48.670;9.060;2022-10-16T06:17:57;13.30;99.90
4002;DHT22;2015;48.670;9.060;2022-10-16T06:20:29;13.30;99.90
4002;DHT22;2015;48.670;9.060;2022-10-16T06:23:01;13.40;99.90
4002;DHT22;2015;48.670;9.060;2022-10-16T06:25:33;13.40;99.90
4002;DHT22;2015;48.670;9.060;2022-10-16T06:28:05;13.40;99.90
4002;DHT22;2015;48.670;9.060;2022-10-16T06:30:36;13.50;99.90
4002;DHT22;2015;48.670;9.060;2022-10-16T06:33:08;13.50;99.90
4002;DHT22;2015;48.670;9.060;2022-10-16T06:35:40;13.60;99.90
4002;DHT22;2015;48.670;9.060;2022-10-16T06:38:12;13.60;99.90
4002;DHT22;2015;48.670;9.060;2022-10-16T06:40:44;13.70;99.90
4002;DHT22;2015;48.670;9.060;2022-10-16T06:43:16;13.70;99.90
4002;DHT22;2015;48.670;9.060;2022-10-16T06:45:54;13.80;99.90
4002;DHT22;2015;48.670;9.060;2022-10-16T06:48:28;13.80;99.90
4002;DHT22;2015;48.670;9.060;2022-10-16T06:51:08;13.80;99.90
4002;DHT22;2015;48.670;9.060;2022-10-16T06:53:42;13.90;99.90
4002;DHT22;2015;48.670;9.060;2022-10-16T06:56:33;14.00;99.90
4002;DHT22;2015;48.670;9.060;2022-10-16T06:59:05;14.00;99.90
4002;DHT22;2015;48.670;9.060;2022-10-16T07:01:37;14.00;99.90
4002;DHT22;2015;48.670;9.060;2022-10-16T07:04:09;14.10;99.90
4002;DHT22;2015;48.670;9.060;2022-10-16T07:06:41;14.20;99.90
4002;DHT22;2015;48.670;9.060;2022-10-16T07:09:12;14.30;99.90
4002;DHT22;2015;48.670;9.060;2022-10-16T07:11:44;14.30;99.90
4002;DHT22;2015;48.670;9.060;2022-10-16T07:14:18;14.40;99.90
4002;DHT22;2015;48.670;9.060;2022-10-16T07:16:51;14.40;99.90
4002;DHT22;2015;48.670;9.060;2022-10-16T07:19:23;14.50;99.90
4002;DHT22;2015;48.670;9.060;2022-10-16T07:21:54;14.50;99.90
4002;DHT22;2015;48.670;9.060;2022-10-16T07:24:26;14.60;99.90
4002;DHT22;2015;48.670;9.060;2022-10-16T07:26:58;14.60;99.90
4002;DHT22;2015;48.670;9.060;2022-10-16T07:29:30;14.60;99.90
4002;DHT22;2015;48.670;9.060;2022-10-16T07:32:02;14.60;99.90
4002;DHT22;2015;48.670;9.060;2022-10-16T07:34:33;14.70;99.90
4002;DHT22;2015;48.670;9.060;2022-10-16T07:37:05;14.90;99.90
4002;DHT22;2015;48.670;9.060;2022-10-16T07:39:37;15.10;99.90
4002;DHT22;2015;48.670;9.060;2022-10-16T07:42:09;15.20;99.90
4002;DHT22;2015;48.670;9.060;2022-10-16T07:44:40;15.40;99.90
4002;DHT22;2015;48.670;9.060;2022-10-16T07:47:12;15.40;99.90
4002;DHT22;2015;48.670;9.060;2022-10-16T07:49:44;15.30;99.90
4002;DHT22;2015;48.670;9.060;2022-10-16T07:52:16;15.40;99.90
4002;DHT22;2015;48.670;9.060;2022-10-16T07:54:47;15.60;99.90
4002;DHT22;2015;48.670;9.060;2022-10-16T07:57:19;15.60;99.90
4002;DHT22;2015;48.670;9.060;2022-10-16T07:59:51;15.60;99.90
4002;DHT22;2015;48.670;9.060;2022-10-16T08:02:23;15.60;99.90
4002;DHT22;2015;48.670;9.060;2022-10-16T08:04:55;15.50;99.90
4002;DHT22;2015;48.670;9.060;2022-10-16T08:07:26;15.50;99.90
4002;DHT22;2015;48.670;9.060;2022-10-16T08:09:58;15.60;99.90
4002;DHT22;2015;48.670;9.060;2022-10-16T08:12:30;15.60;99.90
4002;DHT22;2015;48.670;9.060;2022-10-16T08:15:02;15.70;99.90
4002;DHT22;2015;48.670;9.060;2022-10-16T08:17:34;15.90;99.90
4002;DHT22;2015;48.670;9.060;2022-10-16T08:20:06;16.00;99.90
4002;DHT22;2015;48.670;9.060;2022-10-16T08:22:38;16.30;99.90
4002;DHT22;2015;48.670;9.060;2022-10-16T08:25:10;16.60;99.90
4002;DHT22;2015;48.670;9.060;2022-10-16T08:27:42;16.90;99.90
4002;DHT22;2015;48.670;9.060;2022-10-16T08:30:16;17.20;99.90
4002;DHT22;2015;48.670;9.060;2022-10-16T08:32:48;17.30;99.90
4002;DHT22;2015;48.670;9.060;2022-10-16T08:35:19;17.30;99.90
4002;DHT22;2015;48.670;9.060;2022-10-16T08:37:51;17.30;99.90
4002;DHT22;2015;48.670;9.060;2022-10-16T08:40:28;17.40;99.90
4002;DHT22;2015;48.670;9.060;2022-10-16T08:43:31;17.30;99.90
4002;DHT22;2015;48.670;9.060;2022-10-16T08:49:12;17.20;99.90
4002;DHT22;2015;48.670;9.060;2022-10-16T08:51:47;17.10;99.90
4002;DHT22;2015;48.670;9.060;2022-10-16T08:54:34;17.00;99.90
4002;DHT22;2015;48.670;9.060;2022-10-16T08:57:19;17.10;99.90
4002;DHT22;2015;48.670;9.060;2022-10-16T08:59:59;17.10;99.90
4002;DHT22;2015;48.670;9.060;2022-10-16T09:02:35;17.10;99.90
4002;DHT22;2015;48.670;9.060;2022-10-16T09:11:03;17.90;99.90
4002;DHT22;2015;48.670;9.060;2022-10-16T09:14:06;18.10;99.90
4002;DHT22;2015;48.670;9.060;2022-10-16T09:16:48;18.30;99.90
4002;DHT22;2015;48.670;9.060;2022-10-16T09:19:36;18.50;99.90
4002;DHT22;2015;48.670;9.060;2022-10-16T09:22:16;18.60;99.90
4002;DHT22;2015;48.670;9.060;2022-10-16T09:24:48;18.80;99.90
4002;DHT22;2015;48.670;9.060;2022-10-16T09:27:20;19.50;99.90
4002;DHT22;2015;48.670;9.060;2022-10-16T09:29:52;20.60;99.90
4002;DHT22;2015;48.670;9.060;2022-10-16T09:32:31;21.50;99.90
4002;DHT22;2015;48.670;9.060;2022-10-16T09:35:13;21.80;99.90
4002;DHT22;2015;48.670;9.060;2022-10-16T09:37:47;22.40;99.90
4002;DHT22;2015;48.670;9.060;2022-10-16T09:43:42;22.80;99.90
4002;DHT22;2015;48.670;9.060;2022-10-16T09:46:35;23.00;99.90
4002;DHT22;2015;48.670;9.060;2022-10-16T09:49:37;24.10;99.90
4002;DHT22;2015;48.670;9.060;2022-10-16T09:52:14;25.00;99.90
4002;DHT22;2015;48.670;9.060;2022-10-16T09:55:00;25.20;99.90
4002;DHT22;2015;48.670;9.060;2022-10-16T09:57:34;25.20;99.90
4002;DHT22;2015;48.670;9.060;2022-10-16T10:00:09;26.30;99.90
4002;DHT22;2015;48.670;9.060;2022-10-16T10:02:40;26.60;99.90
4002;DHT22;2015;48.670;9.060;2022-10-16T10:05:26;25.70;99.90
4002;DHT22;2015;48.670;9.060;2022-10-16T10:08:01;24.50;99.90
4002;DHT22;2015;48.670;9.060;2022-10-16T10:10:41;24.40;99.90
4002;DHT22;2015;48.670;9.060;2022-10-16T10:13:21;25.00;99.90
4002;DHT22;2015;48.670;9.060;2022-10-16T10:15:54;26.00;99.90
4002;DHT22;2015;48.670;9.060;2022-10-16T10:18:26;26.30;99.90
4002;DHT22;2015;48.670;9.060;2022-10-16T10:21:02;26.10;99.90
4002;DHT22;2015;48.670;9.060;2022-10-16T10:23:36;26.30;99.90
4002;DHT22;2015;48.670;9.060;2022-10-16T10:26:20;25.60;99.90
4002;DHT22;2015;48.670;9.060;2022-10-16T10:31:53;23.80;99.90
4002;DHT22;2015;48.670;9.060;2022-10-16T10:37:30;23.10;99.90
4002;DHT22;2015;48.670;9.060;2022-10-16T10:46:23;23.00;99.90
4002;DHT22;2015;48.670;9.060;2022-10-16T10:52:02;24.60;99.90
4002;DHT22;2015;48.670;9.060;2022-10-16T10:57:52;26.50;99.90
4002;DHT22;2015;48.670;9.060;2022-10-16T11:00:37;27.20;99.90
4002;DHT22;2015;48.670;9.060;2022-10-16T11:04:23;27.10;99.90
4002;DHT22;2015;48.670;9.060;2022-10-16T11:09:27;25.40;99.90
4002;DHT22;2015;48.670;9.060;2022-10-16T11:14:48;23.90;99.90
4002;DHT22;2015;48.670;9.060;2022-10-16T11:17:31;23.40;99.90
4002;DHT22;2015;48.670;9.060;2022-10-16T11:20:16;23.20;99.90
4002;DHT22;2015;48.670;9.060;2022-10-16T11:26:12;22.90;99.90
4002;DHT22;2015;48.670;9.060;2022-10-16T11:28:55;22.90;99.90
4002;DHT22;2015;48.670;9.060;2022-10-16T11:31:55;23.10;99.90
4002;DHT22;2015;48.670;9.060;2022-10-16T11:34:42;23.00;99.90
4002;DHT22;2015;48.670;9.060;2022-10-16T11:37:41;22.80;99.90
4002;DHT22;2015;48.670;9.060;2022-10-16T11:40:34;22.70;99.90
4002;DHT22;2015;48.670;9.060;2022-10-16T11:43:19;22.40;99.90
4002;DHT22;2015;48.670;9.060;2022-10-16T11:45:55;22.10;99.90
4002;DHT22;2015;48.670;9.060;2022-10-16T11:54:33;22.00;99.90
4002;DHT22;2015;48.670;9.060;2022-10-16T11:57:17;21.80;99.90
4002;DHT22;2015;48.670;9.060;2022-10-16T12:00:20;21.80;99.90
4002;DHT22;2015;48.670;9.060;2022-10-16T12:08:19;21.90;99.90
4002;DHT22;2015;48.670;9.060;2022-10-16T12:10:51;21.90;99.90
4002;DHT22;2015;48.670;9.060;2022-10-16T12:18:46;22.20;99.90
4002;DHT22;2015;48.670;9.060;2022-10-16T12:21:18;22.20;99.90
4002;DHT22;2015;48.670;9.060;2022-10-16T12:24:02;22.50;99.90
4002;DHT22;2015;48.670;9.060;2022-10-16T12:26:39;22.60;99.90
4002;DHT22;2015;48.670;9.060;2022-10-16T12:32:05;22.60;99.90
4002;DHT22;2015;48.670;9.060;2022-10-16T12:34:42;22.50;99.90
4002;DHT22;2015;48.670;9.060;2022-10-16T12:37:23;22.60;99.90
4002;DHT22;2015;48.670;9.060;2022-10-16T12:39:56;22.50;99.90
4002;DHT22;2015;48.670;9.060;2022-10-16T12:45:30;22.40;99.90
4002;DHT22;2015;48.670;9.060;2022-10-16T12:48:18;22.30;99.90
4002;DHT22;2015;48.670;9.060;2022-10-16T12:50:50;22.30;99.90
4002;DHT22;2015;48.670;9.060;2022-10-16T12:53:25;22.20;99.90
4002;DHT22;2015;48.670;9.060;2022-10-16T12:56:04;22.10;99.90
4002;DHT22;2015;48.670;9.060;2022-10-16T12:58:47;22.10;99.90
4002;DHT22;2015;48.670;9.060;2022-10-16T13:04:26;22.10;99.90
4002;DHT22;2015;48.670;9.060;2022-10-16T13:07:37;22.20;99.90
4002;DHT22;2015;48.670;9.060;2022-10-16T13:13:09;22.10;99.90
4002;DHT22;2015;48.670;9.060;2022-10-16T13:19:15;22.10;99.90
4002;DHT22;2015;48.670;9.060;2022-10-16T13:21:34;22.20;99.90
4002;DHT22;2015;48.670;9.060;2022-10-16T13:27:09;22.20;99.90
4002;DHT22;2015;48.670;9.060;2022-10-16T13:29:43;22.20;99.90
4002;DHT22;2015;48.670;9.060;2022-10-16T13:32:16;22.20;99.90
4002;DHT22;2015;48.670;9.060;2022-10-16T13:34:48;22.20;99.90
4002;DHT22;2015;48.670;9.060;2022-10-16T13:37:23;22.20;99.90
4002;DHT22;2015;48.670;9.060;2022-10-16T13:40:18;22.20;99.90
4002;DHT22;2015;48.670;9.060;2022-10-16T13:42:50;22.20;99.90
4002;DHT22;2015;48.670;9.060;2022-10-16T13:45:25;22.10;99.90
4002;DHT22;2015;48.670;9.060;2022-10-16T13:48:04;22.00;99.90
4002;DHT22;2015;48.670;9.060;2022-10-16T13:50:36;21.80;99.90
4002;DHT22;2015;48.670;9.060;2022-10-16T13:53:14;21.60;99.90
4002;DHT22;2015;48.670;9.060;2022-10-16T13:55:46;21.50;99.90
4002;DHT22;2015;48.670;9.060;2022-10-16T13:58:18;21.40;99.90
4002;DHT22;2015;48.670;9.060;2022-10-16T14:01:02;21.40;99.90
4002;DHT22;2015;48.670;9.060;2022-10-16T14:03:37;21.30;99.90
4002;DHT22;2015;48.670;9.060;2022-10-16T14:06:27;21.20;99.90
4002;DHT22;2015;48.670;9.060;2022-10-16T14:09:05;21.20;99.90
4002;DHT22;2015;48.670;9.060;2022-10-16T14:11:48;21.20;99.90
4002;DHT22;2015;48.670;9.060;2022-10-16T14:14:23;21.20;99.90
4002;DHT22;2015;48.670;9.060;2022-10-16T14:16:56;21.10;99.90
4002;DHT22;2015;48.670;9.060;2022-10-16T14:19:29;21.00;99.90
4002;DHT22;2015;48.670;9.060;2022-10-16T14:22:01;21.00;99.90
4002;DHT22;2015;48.670;9.060;2022-10-16T14:24:34;21.00;99.90
4002;DHT22;2015;48.670;9.060;2022-10-16T14:27:41;21.00;99.90
4002;DHT22;2015;48.670;9.060;2022-10-16T14:30:18;21.00;99.90
4002;DHT22;2015;48.670;9.060;2022-10-16T14:33:02;21.00;99.90
4002;DHT22;2015;48.670;9.060;2022-10-16T14:35:38;21.00;99.90
4002;DHT22;2015;48.670;9.060;2022-10-16T14:38:20;21.00;99.90
4002;DHT22;2015;48.670;9.060;2022-10-16T14:40:53;21.00;99.90
4002;DHT22;2015;48.670;9.060;2022-10-16T14:43:31;20.90;99.90
4002;DHT22;2015;48.670;9.060;2022-10-16T14:46:15;20.90;99.90
4002;DHT22;2015;48.670;9.060;2022-10-16T14:48:50;20.80;99.90
4002;DHT22;2015;48.670;9.060;2022-10-16T14:51:22;20.80;99.90
4002;DHT22;2015;48.670;9.060;2022-10-16T14:53:54;20.70;99.90
4002;DHT22;2015;48.670;9.060;2022-10-16T14:56:54;20.60;99.90
4002;DHT22;2015;48.670;9.060;2022-10-16T14:59:33;20.40;99.90
4002;DHT22;2015;48.670;9.060;2022-10-16T15:02:25;20.30;99.90
4002;DHT22;2015;48.670;9.060;2022-10-16T15:05:18;20.20;99.90
4002;DHT22;2015;48.670;9.060;2022-10-16T15:07:51;20.10;99.90
4002;DHT22;2015;48.670;9.060;2022-10-16T15:10:28;19.90;99.90
4002;DHT22;2015;48.670;9.060;2022-10-16T15:13:00;19.80;99.90
4002;DHT22;2015;48.670;9.060;2022-10-16T15:15:48;19.70;99.90
4002;DHT22;2015;48.670;9.060;2022-10-16T15:18:23;19.60;99.90
4002;DHT22;2015;48.670;9.060;2022-10-16T15:20:55;19.60;99.90
4002;DHT22;2015;48.670;9.060;2022-10-16T15:23:26;19.40;99.90
4002;DHT22;2015;48.670;9.060;2022-10-16T15:25:58;19.40;99.90
4002;DHT22;2015;48.670;9.060;2022-10-16T15:28:30;19.20;99.90
4002;DHT22;2015;48.670;9.060;2022-10-16T15:31:04;19.10;99.90
4002;DHT22;2015;48.670;9.060;2022-10-16T15:33:36;19.00;99.90
4002;DHT22;2015;48.670;9.060;2022-10-16T15:36:10;18.90;99.90
4002;DHT22;2015;48.670;9.060;2022-10-16T15:38:42;18.90;99.90
4002;DHT22;2015;48.670;9.060;2022-10-16T15:41:14;18.80;99.90
4002;DHT22;2015;48.670;9.060;2022-10-16T15:43:48;18.70;99.90
4002;DHT22;2015;48.670;9.060;2022-10-16T15:46:21;18.60;99.90
4002;DHT22;2015;48.670;9.060;2022-10-16T15:48:57;18.50;99.90
4002;DHT22;2015;48.670;9.060;2022-10-16T15:51:29;18.40;99.90
4002;DHT22;2015;48.670;9.060;2022-10-16T15:54:04;18.30;99.90
4002;DHT22;2015;48.670;9.060;2022-10-16T15:56:35;18.30;99.90
4002;DHT22;2015;48.670;9.060;2022-10-16T15:59:08;18.20;99.90
4002;DHT22;2015;48.670;9.060;2022-10-16T16:01:40;18.10;99.90
4002;DHT22;2015;48.670;9.060;2022-10-16T16:04:12;18.00;99.90
4002;DHT22;2015;48.670;9.060;2022-10-16T16:07:04;18.00;99.90
4002;DHT22;2015;48.670;9.060;2022-10-16T16:09:38;17.90;99.90
4002;DHT22;2015;48.670;9.060;2022-10-16T16:12:10;17.80;99.90
4002;DHT22;2015;48.670;9.060;2022-10-16T16:14:42;17.70;99.90
4002;DHT22;2015;48.670;9.060;2022-10-16T16:17:17;17.70;99.90
4002;DHT22;2015;48.670;9.060;2022-10-16T16:19:52;17.60;99.90
4002;DHT22;2015;48.670;9.060;2022-10-16T16:22:24;17.50;99.90
4002;DHT22;2015;48.670;9.060;2022-10-16T16:24:57;17.40;99.90
4002;DHT22;2015;48.670;9.060;2022-10-16T16:27:29;17.30;99.90
4002;DHT22;2015;48.670;9.060;2022-10-16T16:30:06;17.20;99.90
4002;DHT22;2015;48.670;9.060;2022-10-16T16:32:38;17.10;99.90
4002;DHT22;2015;48.670;9.060;2022-10-16T16:35:10;17.10;99.90
4002;DHT22;2015;48.670;9.060;2022-10-16T16:37:42;17.00;99.90
4002;DHT22;2015;48.670;9.060;2022-10-16T16:40:14;16.90;99.90
4002;DHT22;2015;48.670;9.060;2022-10-16T16:42:48;16.80;99.90
4002;DHT22;2015;48.670;9.060;2022-10-16T16:45:20;16.70;99.90
4002;DHT22;2015;48.670;9.060;2022-10-16T16:47:53;16.70;99.90
4002;DHT22;2015;48.670;9.060;2022-10-16T16:50:24;16.60;99.90
4002;DHT22;2015;48.670;9.060;2022-10-16T16:52:56;16.50;99.90
4002;DHT22;2015;48.670;9.060;2022-10-16T16:55:28;16.40;99.90
4002;DHT22;2015;48.670;9.060;2022-10-16T16:58:00;16.40;99.90
4002;DHT22;2015;48.670;9.060;2022-10-16T17:00:32;16.30;99.90
4002;DHT22;2015;48.670;9.060;2022-10-16T17:03:04;16.20;99.90
4002;DHT22;2015;48.670;9.060;2022-10-16T17:05:36;16.20;99.90
4002;DHT22;2015;48.670;9.060;2022-10-16T17:08:08;16.10;99.90
4002;DHT22;2015;48.670;9.060;2022-10-16T17:10:43;16.10;99.90
4002;DHT22;2015;48.670;9.060;2022-10-16T17:13:15;16.00;99.90
4002;DHT22;2015;48.670;9.060;2022-10-16T17:15:48;16.00;99.90
4002;DHT22;2015;48.670;9.060;2022-10-16T17:18:22;16.00;99.90
4002;DHT22;2015;48.670;9.060;2022-10-16T17:20:54;15.90;99.90
4002;DHT22;2015;48.670;9.060;2022-10-16T17:23:26;15.90;99.90
4002;DHT22;2015;48.670;9.060;2022-10-16T17:26:04;15.90;99.90
4002;DHT22;2015;48.670;9.060;2022-10-16T17:28:36;15.80;99.90
4002;DHT22;2015;48.670;9.060;2022-10-16T17:31:17;15.80;99.90
4002;DHT22;2015;48.670;9.060;2022-10-16T17:33:50;15.70;99.90
4002;DHT22;2015;48.670;9.060;2022-10-16T17:36:22;15.70;99.90
4002;DHT22;2015;48.670;9.060;2022-10-16T17:38:56;15.70;99.90
4002;DHT22;2015;48.670;9.060;2022-10-16T17:41:31;15.60;99.90
4002;DHT22;2015;48.670;9.060;2022-10-16T17:44:05;15.60;99.90
4002;DHT22;2015;48.670;9.060;2022-10-16T17:46:37;15.60;99.90
4002;DHT22;2015;48.670;9.060;2022-10-16T17:49:11;15.50;99.90
4002;DHT22;2015;48.670;9.060;2022-10-16T17:51:43;15.40;99.90
4002;DHT22;2015;48.670;9.060;2022-10-16T17:54:15;15.40;99.90
4002;DHT22;2015;48.670;9.060;2022-10-16T17:56:47;15.40;99.90
4002;DHT22;2015;48.670;9.060;2022-10-16T17:59:19;15.30;99.90
4002;DHT22;2015;48.670;9.060;2022-10-16T18:01:53;15.30;99.90
4002;DHT22;2015;48.670;9.060;2022-10-16T18:04:25;15.30;99.90
4002;DHT22;2015;48.670;9.060;2022-10-16T18:06:57;15.20;99.90
4002;DHT22;2015;48.670;9.060;2022-10-16T18:09:31;15.20;99.90
4002;DHT22;2015;48.670;9.060;2022-10-16T18:12:03;15.10;99.90
4002;DHT22;2015;48.670;9.060;2022-10-16T18:14:34;15.10;99.90
4002;DHT22;2015;48.670;9.060;2022-10-16T18:17:06;15.00;99.90
4002;DHT22;2015;48.670;9.060;2022-10-16T18:19:38;15.00;99.90
4002;DHT22;2015;48.670;9.060;2022-10-16T18:22:09;15.00;99.90
4002;DHT22;2015;48.670;9.060;2022-10-16T18:24:41;14.90;99.90
4002;DHT22;2015;48.670;9.060;2022-10-16T18:27:13;14.90;99.90
4002;DHT22;2015;48.670;9.060;2022-10-16T18:29:45;14.80;99.90
4002;DHT22;2015;48.670;9.060;2022-10-16T18:32:17;14.80;99.90
4002;DHT22;2015;48.670;9.060;2022-10-16T18:34:48;14.80;99.90
4002;DHT22;2015;48.670;9.060;2022-10-16T18:37:20;14.70;99.90
4002;DHT22;2015;48.670;9.060;2022-10-16T18:39:52;14.70;99.90
4002;DHT22;2015;48.670;9.060;2022-10-16T18:42:24;14.70;99.90
4002;DHT22;2015;48.670;9.060;2022-10-16T18:44:56;14.70;99.90
4002;DHT22;2015;48.670;9.060;2022-10-16T18:47:28;14.70;99.90
4002;DHT22;2015;48.670;9.060;2022-10-16T18:50:00;14.70;99.90
4002;DHT22;2015;48.670;9.060;2022-10-16T18:52:32;14.60;99.90
4002;DHT22;2015;48.670;9.060;2022-10-16T18:55:04;14.60;99.90
4002;DHT22;2015;48.670;9.060;2022-10-16T18:57:36;14.60;99.90
4002;DHT22;2015;48.670;9.060;2022-10-16T19:00:08;14.50;99.90
4002;DHT22;2015;48.670;9.060;2022-10-16T19:02:40;14.50;99.90
4002;DHT22;2015;48.670;9.060;2022-10-16T19:05:12;14.50;99.90
4002;DHT22;2015;48.670;9.060;2022-10-16T19:07:46;14.50;99.90
4002;DHT22;2015;48.670;9.060;2022-10-16T19:10:18;14.40;99.90
4002;DHT22;2015;48.670;9.060;2022-10-16T19:12:50;14.40;99.90
4002;DHT22;2015;48.670;9.060;2022-10-16T19:15:22;14.40;99.90
4002;DHT22;2015;48.670;9.060;2022-10-16T19:17:54;14.40;99.90
4002;DHT22;2015;48.670;9.060;2022-10-16T19:20:26;14.30;99.90
4002;DHT22;2015;48.670;9.060;2022-10-16T19:22:58;14.30;99.90
4002;DHT22;2015;48.670;9.060;2022-10-16T19:25:29;14.30;99.90
4002;DHT22;2015;48.670;9.060;2022-10-16T19:28:02;14.40;99.90
4002;DHT22;2015;48.670;9.060;2022-10-16T19:30:39;14.40;99.90
4002;DHT22;2015;48.670;9.060;2022-10-16T19:33:11;14.40;99.90
4002;DHT22;2015;48.670;9.060;2022-10-16T19:35:43;14.40;99.90
4002;DHT22;2015;48.670;9.060;2022-10-16T19:38:15;14.40;99.90
4002;DHT22;2015;48.670;9.060;2022-10-16T19:40:47;14.40;99.90
4002;DHT22;2015;48.670;9.060;2022-10-16T19:43:19;14.40;99.90
4002;DHT22;2015;48.670;9.060;2022-10-16T19:45:51;14.40;99.90
4002;DHT22;2015;48.670;9.060;2022-10-16T19:48:22;14.40;99.90
4002;DHT22;2015;48.670;9.060;2022-10-16T19:51:00;14.40;99.90
4002;DHT22;2015;48.670;9.060;2022-10-16T19:53:32;14.40;99.90
4002;DHT22;2015;48.670;9.060;2022-10-16T19:56:15;14.30;99.90
4002;DHT22;2015;48.670;9.060;2022-10-16T19:58:49;14.30;99.90
4002;DHT22;2015;48.670;9.060;2022-10-16T20:01:22;14.30;99.90
4002;DHT22;2015;48.670;9.060;2022-10-16T20:03:55;14.30;99.90
4002;DHT22;2015;48.670;9.060;2022-10-16T20:06:27;14.30;99.90
4002;DHT22;2015;48.670;9.060;2022-10-16T20:08:58;14.30;99.90
4002;DHT22;2015;48.670;9.060;2022-10-16T20:11:32;14.20;99.90
4002;DHT22;2015;48.670;9.060;2022-10-16T20:14:05;14.30;99.90
4002;DHT22;2015;48.670;9.060;2022-10-16T20:16:37;14.30;99.90
4002;DHT22;2015;48.670;9.060;2022-10-16T20:19:10;14.20;99.90
4002;DHT22;2015;48.670;9.060;2022-10-16T20:21:42;14.20;99.90
4002;DHT22;2015;48.670;9.060;2022-10-16T20:24:14;14.20;99.90
4002;DHT22;2015;48.670;9.060;2022-10-16T20:26:46;14.20;99.90
4002;DHT22;2015;48.670;9.060;2022-10-16T20:29:17;14.20;99.90
4002;DHT22;2015;48.670;9.060;2022-10-16T20:31:49;14.20;99.90
4002;DHT22;2015;48.670;9.060;2022-10-16T20:34:21;14.20;99.90
4002;DHT22;2015;48.670;9.060;2022-10-16T20:36:53;14.20;99.90
4002;DHT22;2015;48.670;9.060;2022-10-16T20:39:24;14.20;99.90
4002;DHT22;2015;48.670;9.060;2022-10-16T20:41:56;14.20;99.90
4002;DHT22;2015;48.670;9.060;2022-10-16T20:44:28;14.20;99.90
4002;DHT22;2015;48.670;9.060;2022-10-16T20:47:00;14.20;99.90
4002;DHT22;2015;48.670;9.060;2022-10-16T20:49:31;14.20;99.90
4002;DHT22;2015;48.670;9.060;2022-10-16T20:52:11;14.20;99.90
4002;DHT22;2015;48.670;9.060;2022-10-16T20:54:43;14.20;99.90
4002;DHT22;2015;48.670;9.060;2022-10-16T20:57:16;14.20;99.90
4002;DHT22;2015;48.670;9.060;2022-10-16T20:59:48;14.20;99.90
4002;DHT22;2015;48.670;9.060;2022-10-16T21:02:21;14.10;99.90
4002;DHT22;2015;48.670;9.060;2022-10-16T21:04:58;14.10;99.90
4002;DHT22;2015;48.670;9.060;2022-10-16T21:07:30;14.10;99.90
4002;DHT22;2015;48.670;9.060;2022-10-16T21:10:02;14.10;99.90
4002;DHT22;2015;48.670;9.060;2022-10-16T21:12:34;14.10;99.90
4002;DHT22;2015;48.670;9.060;2022-10-16T21:15:06;14.00;99.90
4002;DHT22;2015;48.670;9.060;2022-10-16T21:17:46;14.00;99.90
4002;DHT22;2015;48.670;9.060;2022-10-16T21:20:19;14.10;99.90
4002;DHT22;2015;48.670;9.060;2022-10-16T21:22:51;14.10;99.90
4002;DHT22;2015;48.670;9.060;2022-10-16T21:25:23;14.00;99.90
4002;DHT22;2015;48.670;9.060;2022-10-16T21:27:54;14.00;99.90
4002;DHT22;2015;48.670;9.060;2022-10-16T21:30:26;14.00;99.90
4002;DHT22;2015;48.670;9.060;2022-10-16T21:32:58;13.90;99.90
4002;DHT22;2015;48.670;9.060;2022-10-16T21:35:30;13.90;99.90
4002;DHT22;2015;48.670;9.060;2022-10-16T21:38:02;13.90;99.90
4002;DHT22;2015;48.670;9.060;2022-10-16T21:40:37;13.90;99.90
4002;DHT22;2015;48.670;9.060;2022-10-16T21:43:08;13.80;99.90
4002;DHT22;2015;48.670;9.060;2022-10-16T21:45:41;13.80;99.90
4002;DHT22;2015;48.670;9.060;2022-10-16T21:48:13;13.80;99.90
4002;DHT22;2015;48.670;9.060;2022-10-16T21:50:49;13.80;99.90
4002;DHT22;2015;48.670;9.060;2022-10-16T21:53:21;13.70;99.90
4002;DHT22;2015;48.670;9.060;2022-10-16T21:55:52;13.70;99.90
4002;DHT22;2015;48.670;9.060;2022-10-16T21:58:24;13.60;99.90
4002;DHT22;2015;48.670;9.060;2022-10-16T22:01:08;13.60;99.90
4002;DHT22;2015;48.670;9.060;2022-10-16T22:03:41;13.60;99.90
4002;DHT22;2015;48.670;9.060;2022-10-16T22:06:16;13.60;99.90